Date,TemperatureHighF,TemperatureAvgF,TemperatureLowF,DewpointHighF,DewpointAvgF,DewpointLowF,HumidityHigh,HumidityAvg,HumidityLow,PressureMaxIn,PressureMinIn,WindSpeedMaxMPH,WindSpeedAvgMPH,GustSpeedMaxMPH,PrecipitationSumIn
2013-3-1,28.2,6.4,23.6,21.8,-90.5,-99.9,91,9,81,30.26,30.04,11,-84,17,0.08
2013-3-2,30.9,11.8,13.8,16.9,-67.5,-99.9,73,17,54,30.28,30.12,7,-93,10,0.01
2013-3-3,-200.0,0.0,200.0,-99.9,-99.9,-99.9,0,0,100,30.22,30.07,1,-391,2,0.00
2013-3-4,29.1,0.9,29.1,-99.9,-99.9,-99.9,0,0,100,29.97,29.82,12,-401,15,0.00
2013-3-5,28.8,4.7,27.5,25.4,-93.7,-99.9,87,4,87,30.11,29.92,17,-224,17,0.00
2013-3-6,28.8,15.4,20.4,23.1,-38.3,-99.9,85,40,71,30.38,30.09,7,-24,13,0.05
2013-3-7,22.6,0.3,22.6,-99.9,-99.9,-99.9,0,0,100,30.40,30.31,7,-149,7,0.00
2013-3-8,-200.0,0.0,200.0,-99.9,-99.9,-99.9,0,0,100,30.38,30.17,10,-775,10,0.00
2013-3-9,-200.0,0.0,200.0,-99.9,-99.9,-99.9,0,0,100,30.17,29.74,13,-879,13,0.00
2013-3-10,49.3,0.8,49.3,-99.9,-99.9,-99.9,0,0,100,29.77,29.50,9,-755,9,0.00
2013-3-11,-200.0,0.0,200.0,-99.9,-99.9,-99.9,0,0,100,29.68,29.57,13,-740,13,0.00
2013-3-12,-200.0,0.0,200.0,-99.9,-99.9,-99.9,0,0,100,30.10,29.97,10,-908,10,0.00
2013-3-13,25.0,0.2,25.0,-99.9,-99.9,-99.9,0,0,100,30.38,30.10,14,-826,14,0.00
2013-3-14,72.1,19.7,67.8,38.6,-81.8,-99.9,30,4,29,30.32,30.01,10,-651,10,0.00
2013-3-15,72.2,34.6,68.8,40.8,-49.5,-99.9,33,11,32,30.02,29.70,2,-706,2,0.00
2013-3-16,72.7,72.3,71.9,41.8,40.9,40.4,33,32,32,29.96,29.70,7,-793,10,0.00
2013-3-18,30.0,25.3,23.8,17.8,10.4,-99.9,66,62,61,29.96,29.83,16,13,22,0.00
2013-3-19,39.3,25.3,17.7,17.0,-1.8,-99.9,66,47,33,30.19,29.93,20,-133,20,0.00
2013-3-20,27.5,17.0,14.2,18.0,-38.6,-99.9,72,31,39,30.25,30.07,20,-464,22,0.00
2013-3-21,44.6,12.5,14.0,19.9,-72.6,-99.9,59,11,26,30.14,29.96,3,-767,3,0.00
2013-3-22,45.1,19.3,22.3,20.8,-78.2,-99.9,62,8,34,30.07,29.94,1,-586,1,0.00
2013-3-23,46.4,19.0,29.1,24.8,-74.6,-99.9,75,16,41,30.10,29.92,7,-650,7,0.00
2013-3-24,31.6,17.7,28.5,29.8,-51.1,-99.9,94,35,91,29.99,29.66,11,-681,11,0.00
2013-3-25,35.3,28.9,33.2,25.8,5.6,-99.9,71,58,68,30.10,30.02,10,-311,10,0.04
2013-3-26,38.3,20.4,34.4,25.6,-44.7,-99.9,70,28,58,30.31,30.22,7,-673,7,0.00
2013-3-27,44.0,27.7,29.4,29.2,-21.8,-99.9,80,39,46,30.38,30.28,2,-458,3,0.00
2013-3-28,52.0,21.0,26.6,40.9,-40.4,-99.9,82,34,40,30.38,30.24,1,-541,3,0.00
2013-3-29,48.8,2.0,48.8,-99.9,-99.9,-99.9,0,0,100,30.28,30.17,0,-916,3,0.00
2013-3-30,56.1,45.5,39.3,43.3,31.3,-99.9,86,65,51,30.20,29.88,8,-39,17,0.00
2013-3-31,56.9,43.3,36.9,43.6,31.3,24.2,96,64,35,29.96,29.80,10,2,17,0.00